Terminal Aerodrome Forecast
Issued by NWS Sterling, VA

Current Version | Previous Version | Graphics & Text | Print | Product List | Glossary On
Versions: 1 2 3 4 5 6 7 8 9 10 11 12 13 14 15
000
FTUS41 KLWX 092300
TAFMRB
TAF
KMRB 092338Z 1000/1024 18003KT P6SM SCT090
     FM100700 35004KT P6SM FEW050 SCT130
     FM101000 34004KT 4SM BR FEW050 SCT130
     FM101400 03004KT P6SM BKN050 BKN130=

USA.gov is the U.S. government's official web portal to all federal, state and local government web resources and services.